Time;durP1;ratioP1;P1;durP2;ratioP2;P2;SDS_P1;SDS_P2;PMS_P1;PMS_P2;Temp;Humidity;BMP_temperature;BMP_pressure;BME280_temperature;BME280_humidity;BME280_pressure;Samples;Min_cycle;Max_cycle;Signal;HPM_P1;HPM_P2
2022/12/10 00:01:05;;;;;;;23.90;15.07;;;2.50;99.90;;;;;;5071303;28;20202;-53
2022/12/10 00:03:34;;;;;;;22.47;14.67;;;2.50;99.90;;;;;;5069743;28;20210;-49
2022/12/10 00:06:02;;;;;;;24.23;17.40;;;2.50;99.90;;;;;;5071781;28;20221;-50
2022/12/10 00:08:29;;;;;;;20.73;13.97;;;2.50;99.90;;;;;;5060799;28;20717;-50
2022/12/10 00:10:56;;;;;;;21.63;15.37;;;2.50;99.90;;;;;;5068813;28;20237;-50
2022/12/10 00:13:24;;;;;;;22.07;15.50;;;2.50;99.90;;;;;;5071313;28;20195;-50
2022/12/10 00:15:51;;;;;;;18.83;13.63;;;2.50;99.90;;;;;;5061623;28;20253;-50
2022/12/10 00:18:18;;;;;;;26.30;15.00;;;2.50;99.90;;;;;;5068821;28;20223;-50
2022/12/10 00:20:46;;;;;;;17.50;12.97;;;2.50;99.90;;;;;;5071890;28;20550;-50
2022/12/10 00:23:13;;;;;;;19.23;13.47;;;2.50;99.90;;;;;;5071058;28;20209;-50
2022/12/10 00:25:40;;;;;;;20.57;14.90;;;2.50;99.90;;;;;;5071265;28;20223;-48
2022/12/10 00:28:07;;;;;;;22.67;13.93;;;2.40;99.90;;;;;;5068044;28;20227;-50
2022/12/10 00:30:35;;;;;;;19.50;12.17;;;2.40;99.90;;;;;;5070392;28;20668;-49
2022/12/10 00:33:02;;;;;;;20.40;13.13;;;2.50;99.90;;;;;;5062927;28;20703;-49
2022/12/10 00:35:29;;;;;;;18.80;12.43;;;2.40;99.90;;;;;;5071920;28;20195;-49
2022/12/10 00:37:57;;;;;;;19.53;13.33;;;2.40;99.90;;;;;;5067711;28;20232;-50
2022/12/10 00:40:24;;;;;;;18.60;12.30;;;2.40;99.90;;;;;;5067019;28;20206;-49
2022/12/10 00:42:51;;;;;;;18.53;12.23;;;2.40;99.90;;;;;;5066723;28;20204;-49
2022/12/10 00:45:19;;;;;;;16.60;12.83;;;2.40;99.90;;;;;;5065194;28;20220;-49
2022/12/10 00:47:46;;;;;;;19.17;13.07;;;2.30;99.90;;;;;;5069221;28;20223;-49
2022/12/10 00:50:13;;;;;;;17.60;12.30;;;2.30;99.90;;;;;;5071504;28;20774;-48
2022/12/10 00:52:40;;;;;;;19.40;13.63;;;2.30;99.90;;;;;;5068914;28;20207;-50
2022/12/10 00:55:09;;;;;;;16.70;12.30;;;2.40;99.90;;;;;;5057901;28;20681;-49
2022/12/10 00:57:36;;;;;;;16.50;11.30;;;2.30;99.90;;;;;;5069079;28;20222;-49
2022/12/10 01:00:05;;;;;;;19.80;12.73;;;2.30;99.90;;;;;;5063745;28;20273;-50
2022/12/10 01:02:32;;;;;;;16.00;12.20;;;2.30;99.90;;;;;;5075297;28;20229;-49
2022/12/10 01:04:59;;;;;;;17.73;12.87;;;2.40;99.90;;;;;;5069597;28;20214;-50
2022/12/10 01:07:26;;;;;;;15.93;12.20;;;2.40;99.90;;;;;;5067899;28;20223;-49
2022/12/10 01:09:53;;;;;;;19.30;12.43;;;2.40;99.90;;;;;;5072206;28;20309;-50
2022/12/10 01:12:22;;;;;;;18.73;12.73;;;2.40;99.90;;;;;;5074803;28;20206;-50
2022/12/10 01:14:49;;;;;;;18.63;12.23;;;2.40;99.90;;;;;;5073958;28;20203;-49
2022/12/10 01:17:16;;;;;;;17.20;12.73;;;2.40;99.90;;;;;;5071247;28;20203;-49
2022/12/10 01:19:43;;;;;;;18.37;12.67;;;2.40;99.90;;;;;;5073323;28;20208;-49
2022/12/10 01:22:10;;;;;;;20.87;12.50;;;2.40;99.90;;;;;;5064357;28;20204;-50
2022/12/10 01:24:40;;;;;;;17.90;12.43;;;2.40;99.90;;;;;;5073713;28;20210;-49
2022/12/10 01:27:07;;;;;;;17.87;12.60;;;2.40;99.90;;;;;;5072953;28;20271;-49
2022/12/10 01:29:36;;;;;;;20.67;13.07;;;2.40;99.90;;;;;;5064810;28;20210;-50
2022/12/10 01:32:03;;;;;;;19.73;12.93;;;2.40;99.90;;;;;;5071716;28;20200;-49
2022/12/10 01:34:30;;;;;;;17.47;12.67;;;2.30;99.90;;;;;;5073343;28;20210;-50
2022/12/10 01:36:57;;;;;;;18.53;12.77;;;2.30;99.90;;;;;;5070272;28;20196;-49
2022/12/10 01:39:24;;;;;;;16.33;11.77;;;2.30;99.90;;;;;;5074168;28;20328;-49
2022/12/10 01:41:53;;;;;;;16.40;11.73;;;2.40;99.90;;;;;;5070677;28;20215;-50
2022/12/10 01:45:09;;;;;;;15.57;11.53;;;2.30;99.90;;;;;;5067744;28;20210;-49
2022/12/10 01:47:37;;;;;;;17.33;11.97;;;2.30;99.90;;;;;;5004482;28;20225;-49
2022/12/10 01:50:06;;;;;;;15.93;12.00;;;2.30;99.90;;;;;;5046414;28;20202;-50
2022/12/10 01:52:33;;;;;;;15.40;12.13;;;2.30;99.90;;;;;;5073940;28;20215;-49
2022/12/10 01:55:00;;;;;;;16.80;12.77;;;2.30;99.90;;;;;;5063794;28;20550;-50
2022/12/10 01:57:29;;;;;;;16.13;11.87;;;2.30;99.90;;;;;;5071697;28;20230;-50
2022/12/10 02:00:00;;;;;;;17.63;12.70;;;2.30;99.90;;;;;;5065512;28;20234;-52
2022/12/10 02:02:42;;;;;;;15.07;12.57;;;2.20;99.90;;;;;;5073731;28;20234;-51
2022/12/10 02:05:22;;;;;;;18.47;12.70;;;2.30;99.90;;;;;;5071058;28;20218;-50
2022/12/10 02:08:00;;;;;;;18.57;13.80;;;2.30;99.90;;;;;;5068405;28;20222;-51
2022/12/10 02:10:38;;;;;;;18.07;13.17;;;2.30;99.90;;;;;;5073547;28;20206;-51
2022/12/10 02:13:11;;;;;;;15.43;11.73;;;2.30;99.90;;;;;;5072593;28;20213;-50
2022/12/10 02:15:44;;;;;;;17.47;12.40;;;2.30;99.90;;;;;;5073579;28;20198;-51
2022/12/10 02:18:19;;;;;;;17.63;13.40;;;2.30;99.90;;;;;;5067808;28;20227;-51
2022/12/10 02:20:50;;;;;;;20.60;13.03;;;2.30;99.90;;;;;;5068981;28;20201;-51
2022/12/10 02:23:23;;;;;;;18.20;13.37;;;2.30;99.90;;;;;;5068641;28;20613;-52
2022/12/10 02:25:55;;;;;;;20.43;13.30;;;2.30;99.90;;;;;;5073126;28;20221;-51
2022/12/10 02:28:32;;;;;;;21.10;14.73;;;2.30;99.90;;;;;;5064944;28;20255;-50
2022/12/10 02:31:02;;;;;;;15.27;12.10;;;2.30;99.90;;;;;;5071708;28;20260;-52
2022/12/10 02:33:31;;;;;;;18.30;13.73;;;2.30;99.90;;;;;;5070389;28;20210;-51
2022/12/10 02:35:59;;;;;;;18.07;12.83;;;2.30;99.90;;;;;;5073173;28;20197;-51
2022/12/10 02:38:30;;;;;;;20.27;13.97;;;2.30;99.90;;;;;;5071248;28;20223;-51
2022/12/10 02:41:01;;;;;;;17.97;12.83;;;2.30;99.90;;;;;;5072661;28;20208;-51
2022/12/10 02:43:30;;;;;;;20.20;13.07;;;2.30;99.90;;;;;;5072307;28;20214;-50
2022/12/10 02:45:58;;;;;;;15.23;12.03;;;2.30;99.90;;;;;;5063742;28;20227;-50
2022/12/10 02:48:27;;;;;;;21.27;15.03;;;2.20;99.90;;;;;;5067758;28;20234;-50
2022/12/10 02:50:54;;;;;;;20.13;13.63;;;2.30;99.90;;;;;;5071181;28;20207;-51
2022/12/10 02:53:21;;;;;;;17.60;12.43;;;2.30;99.90;;;;;;5071881;28;20202;-50
2022/12/10 02:56:05;;;;;;;24.33;14.00;;;2.30;99.90;;;;;;5063507;28;20203;-51
2022/12/10 02:58:43;;;;;;;16.10;11.77;;;2.30;99.90;;;;;;5067673;28;20222;-50
2022/12/10 03:01:20;;;;;;;15.17;12.37;;;2.30;99.90;;;;;;5065408;28;20230;-51
2022/12/10 03:03:54;;;;;;;16.27;12.47;;;2.30;99.90;;;;;;5070714;28;20312;-51
2022/12/10 03:06:28;;;;;;;20.23;13.50;;;2.30;99.90;;;;;;5066892;28;20221;-51
2022/12/10 03:09:02;;;;;;;15.40;12.20;;;2.20;99.90;;;;;;5062291;28;20229;-51
2022/12/10 03:11:30;;;;;;;17.37;12.67;;;2.30;99.90;;;;;;5067210;28;20210;-50
2022/12/10 03:14:01;;;;;;;16.63;12.27;;;2.20;99.90;;;;;;5067793;28;20253;-50
2022/12/10 03:16:33;;;;;;;19.33;13.63;;;2.30;99.90;;;;;;5072385;28;20814;-50
2022/12/10 03:19:06;;;;;;;18.17;13.13;;;2.30;99.90;;;;;;5062828;28;20226;-51
2022/12/10 03:21:35;;;;;;;16.63;11.90;;;2.30;99.90;;;;;;5070387;28;20198;-50
2022/12/10 03:24:04;;;;;;;17.23;11.57;;;2.30;99.90;;;;;;5062546;28;20191;-52
2022/12/10 03:26:31;;;;;;;17.17;11.87;;;2.30;99.90;;;;;;5071937;28;20226;-51
2022/12/10 03:29:08;;;;;;;17.53;13.50;;;2.30;99.90;;;;;;5062133;28;20238;-51
2022/12/10 03:31:38;;;;;;;18.67;13.30;;;2.40;99.90;;;;;;5068400;28;20206;-51
2022/12/10 03:34:08;;;;;;;16.87;12.23;;;2.40;99.90;;;;;;5062435;28;20194;-50
2022/12/10 03:36:36;;;;;;;16.20;11.43;;;2.40;99.90;;;;;;5072069;28;20187;-51
2022/12/10 03:39:03;;;;;;;15.80;11.43;;;2.40;99.90;;;;;;5058126;28;20234;-52
2022/12/10 03:41:31;;;;;;;18.27;12.70;;;2.30;99.90;;;;;;5071952;28;20195;-50
2022/12/10 03:44:00;;;;;;;21.17;15.17;;;2.40;99.90;;;;;;5069709;28;20226;-50
2022/12/10 03:46:30;;;;;;;18.37;13.27;;;2.40;99.90;;;;;;5070001;28;20219;-52
2022/12/10 03:48:58;;;;;;;16.37;11.33;;;2.40;99.90;;;;;;5068884;28;20234;-51
2022/12/10 03:51:26;;;;;;;17.10;12.77;;;2.40;99.90;;;;;;5070672;28;20206;-50
2022/12/10 03:53:53;;;;;;;18.77;12.17;;;2.40;99.90;;;;;;5070813;28;20195;-51
2022/12/10 03:56:21;;;;;;;18.43;13.60;;;2.40;99.90;;;;;;5071933;28;20569;-50
2022/12/10 03:58:49;;;;;;;18.53;13.50;;;2.40;99.90;;;;;;5061293;28;20235;-50
2022/12/10 04:01:16;;;;;;;19.13;13.57;;;2.40;99.90;;;;;;5068026;28;20207;-51
2022/12/10 04:03:44;;;;;;;24.70;15.90;;;2.50;99.90;;;;;;5069694;28;20691;-52
2022/12/10 04:06:14;;;;;;;18.03;13.03;;;2.50;99.90;;;;;;5071933;28;20226;-50
2022/12/10 04:08:42;;;;;;;17.73;12.87;;;2.50;99.90;;;;;;5059823;28;20220;-51
2022/12/10 04:11:11;;;;;;;18.53;12.67;;;2.40;99.90;;;;;;5066176;28;20238;-50
2022/12/10 04:16:28;;;;;;;18.97;13.00;;;2.40;99.90;;;;;;5070502;28;20691;-50
2022/12/10 04:18:56;;;;;;;17.47;12.17;;;2.40;99.90;;;;;;5070507;28;20227;-51
2022/12/10 04:26:55;;;;;;;16.90;12.80;;;2.30;99.90;;;;;;5071992;28;20225;-52
2022/12/10 04:29:24;;;;;;;19.17;14.47;;;2.30;99.90;;;;;;5069301;28;20235;-50
2022/12/10 04:31:51;;;;;;;20.43;14.77;;;2.40;99.90;;;;;;5070257;28;20198;-48
2022/12/10 04:34:19;;;;;;;21.93;15.13;;;2.40;99.90;;;;;;5070680;28;20206;-49
2022/12/10 04:36:46;;;;;;;17.73;12.70;;;2.50;99.90;;;;;;5074085;28;20199;-49
2022/12/10 04:39:15;;;;;;;21.03;14.77;;;2.50;99.90;;;;;;5066460;28;20720;-49
2022/12/10 04:41:43;;;;;;;17.83;13.03;;;2.50;99.90;;;;;;5076243;28;20257;-49
2022/12/10 04:44:10;;;;;;;19.80;12.90;;;2.50;99.90;;;;;;5074571;28;20216;-50
2022/12/10 04:46:38;;;;;;;21.87;14.00;;;2.40;99.90;;;;;;5075134;28;20727;-50
2022/12/10 04:49:06;;;;;;;18.63;13.40;;;2.40;99.90;;;;;;5074782;28;20221;-50
2022/12/10 04:51:33;;;;;;;17.73;13.47;;;2.40;99.90;;;;;;5074365;28;21107;-49
2022/12/10 04:54:00;;;;;;;19.70;15.03;;;2.40;99.90;;;;;;5072033;28;20219;-50
2022/12/10 04:56:29;;;;;;;19.53;13.23;;;2.40;99.90;;;;;;5073796;28;20195;-49
2022/12/10 04:58:57;;;;;;;19.63;13.63;;;2.40;99.90;;;;;;5072327;28;20281;-49
2022/12/10 05:01:24;;;;;;;17.47;12.27;;;2.40;99.90;;;;;;5072535;28;20615;-49
2022/12/10 05:03:51;;;;;;;21.40;13.83;;;2.40;99.90;;;;;;5072841;28;20204;-50
2022/12/10 05:06:20;;;;;;;17.77;13.13;;;2.40;99.90;;;;;;5074460;28;20222;-49
2022/12/10 05:08:48;;;;;;;22.07;13.17;;;2.30;99.90;;;;;;5074572;28;20741;-49
2022/12/10 05:11:16;;;;;;;18.97;13.37;;;2.30;99.90;;;;;;5074574;28;20199;-49
2022/12/10 05:13:45;;;;;;;20.30;14.10;;;2.30;99.90;;;;;;5073999;28;20207;-49
2022/12/10 05:16:18;;;;;;;19.77;13.97;;;2.30;99.90;;;;;;5074527;28;20680;-49
2022/12/10 05:18:45;;;;;;;20.87;14.20;;;2.30;99.90;;;;;;5074270;28;20230;-49
2022/12/10 05:21:14;;;;;;;20.87;14.40;;;2.40;99.90;;;;;;5073234;28;20209;-49
2022/12/10 05:23:43;;;;;;;16.80;12.53;;;2.40;99.90;;;;;;5072358;28;20206;-50
2022/12/10 05:26:13;;;;;;;19.70;14.13;;;2.40;99.90;;;;;;5074201;28;20212;-50
2022/12/10 05:28:41;;;;;;;18.57;13.30;;;2.50;99.90;;;;;;5072478;28;20735;-49
2022/12/10 05:31:14;;;;;;;17.27;13.30;;;2.50;99.90;;;;;;5072974;28;20203;-49
2022/12/10 05:33:43;;;;;;;17.37;13.43;;;2.50;99.90;;;;;;5055898;28;20629;-49
2022/12/10 05:36:13;;;;;;;20.10;14.30;;;2.50;99.90;;;;;;5067269;28;20227;-50
2022/12/10 05:38:41;;;;;;;16.60;13.30;;;2.40;99.90;;;;;;5070026;28;20227;-50
2022/12/10 05:41:12;;;;;;;18.53;13.07;;;2.50;99.90;;;;;;5069984;28;20285;-49
2022/12/10 05:43:43;;;;;;;18.00;13.40;;;2.50;99.90;;;;;;5064110;28;20214;-50
2022/12/10 05:46:14;;;;;;;21.07;14.33;;;2.50;99.90;;;;;;5068096;28;20294;-49
2022/12/10 05:48:41;;;;;;;16.83;13.13;;;2.50;99.90;;;;;;5067276;28;20631;-50
2022/12/10 05:51:10;;;;;;;19.20;13.90;;;2.60;99.90;;;;;;5069871;28;20606;-49
2022/12/10 05:53:38;;;;;;;20.13;13.67;;;2.60;99.90;;;;;;5070261;28;20611;-51
2022/12/10 05:56:07;;;;;;;16.97;13.00;;;2.60;99.90;;;;;;5070444;28;20199;-49
2022/12/10 05:58:35;;;;;;;18.53;14.00;;;2.60;99.90;;;;;;5070150;28;20223;-49
2022/12/10 06:01:07;;;;;;;17.60;13.60;;;2.60;99.90;;;;;;5070493;28;20694;-49
2022/12/10 06:03:36;;;;;;;18.57;14.37;;;2.70;99.90;;;;;;5070985;28;20203;-49
2022/12/10 06:06:03;;;;;;;21.53;15.33;;;2.60;99.90;;;;;;5069622;28;20199;-50
2022/12/10 06:08:30;;;;;;;26.47;15.60;;;2.60;99.90;;;;;;5076752;28;20219;-50
2022/12/10 06:11:01;;;;;;;22.17;15.23;;;2.70;99.90;;;;;;5073283;28;20200;-50
2022/12/10 06:13:28;;;;;;;18.90;14.03;;;2.70;99.90;;;;;;5069917;28;20300;-50
2022/12/10 06:15:55;;;;;;;17.37;13.23;;;2.80;99.90;;;;;;5071464;28;20207;-49
2022/12/10 06:18:22;;;;;;;20.87;14.53;;;2.80;99.90;;;;;;5069947;28;20220;-49
2022/12/10 06:20:50;;;;;;;17.47;13.23;;;2.80;99.90;;;;;;5071152;28;20616;-49
2022/12/10 06:23:17;;;;;;;22.03;14.23;;;2.80;99.90;;;;;;5068567;28;20210;-50
2022/12/10 06:25:44;;;;;;;19.07;12.80;;;2.90;99.90;;;;;;5072536;28;20207;-49
2022/12/10 06:28:11;;;;;;;16.30;12.43;;;2.90;99.90;;;;;;5072386;28;20227;-49
2022/12/10 06:30:38;;;;;;;16.20;12.90;;;2.90;99.90;;;;;;5069447;28;20203;-49
2022/12/10 06:33:05;;;;;;;20.50;14.03;;;2.90;99.90;;;;;;5070153;28;20576;-49
2022/12/10 06:35:33;;;;;;;18.63;13.30;;;2.90;99.90;;;;;;5070238;28;20196;-49
2022/12/10 06:38:01;;;;;;;22.00;15.00;;;2.90;99.90;;;;;;5072479;28;20704;-50
2022/12/10 06:40:28;;;;;;;20.97;14.00;;;2.90;99.90;;;;;;5073055;28;20628;-50
2022/12/10 06:42:55;;;;;;;18.13;13.77;;;2.90;99.90;;;;;;5071796;28;20198;-49
2022/12/10 06:45:22;;;;;;;18.13;14.00;;;2.90;99.90;;;;;;5072060;28;20198;-49
2022/12/10 06:47:49;;;;;;;21.13;15.03;;;2.90;99.90;;;;;;5063082;28;20228;-49
2022/12/10 06:50:16;;;;;;;21.30;14.93;;;2.90;99.90;;;;;;5072660;28;20690;-50
2022/12/10 06:52:43;;;;;;;27.00;15.73;;;2.90;99.90;;;;;;5071700;28;20207;-49
2022/12/10 06:55:12;;;;;;;22.60;15.03;;;2.80;99.90;;;;;;5069543;28;20687;-49
2022/12/10 06:57:39;;;;;;;23.70;15.87;;;2.90;99.90;;;;;;5071603;28;20219;-49
2022/12/10 07:00:07;;;;;;;24.73;15.63;;;2.90;99.90;;;;;;5072171;28;20203;-49
2022/12/10 07:02:34;;;;;;;25.67;16.60;;;2.90;99.90;;;;;;5071116;28;20205;-48
2022/12/10 07:05:01;;;;;;;28.93;17.30;;;2.90;99.90;;;;;;5068335;28;20673;-48
2022/12/10 07:07:28;;;;;;;28.03;18.07;;;2.80;99.90;;;;;;5068041;28;20222;-50
2022/12/10 07:09:55;;;;;;;26.77;17.40;;;2.70;99.90;;;;;;5071998;28;20210;-49
2022/12/10 07:12:24;;;;;;;26.93;17.93;;;2.80;99.90;;;;;;5070039;28;20219;-49
2022/12/10 07:14:51;;;;;;;28.10;17.27;;;2.70;99.90;;;;;;5071226;28;20202;-48
2022/12/10 07:17:18;;;;;;;28.77;18.50;;;2.70;99.90;;;;;;5071914;28;20217;-52
2022/12/10 07:19:45;;;;;;;29.67;18.47;;;2.70;99.90;;;;;;5067494;28;20256;-49
2022/12/10 07:22:12;;;;;;;27.97;17.63;;;2.70;99.90;;;;;;5060712;28;20234;-50
2022/12/10 07:24:43;;;;;;;29.70;19.17;;;2.70;99.90;;;;;;5067896;28;20195;-50
2022/12/10 07:27:10;;;;;;;28.77;17.67;;;2.70;99.90;;;;;;5070673;28;20326;-49
2022/12/10 07:29:44;;;;;;;30.07;18.70;;;2.70;99.90;;;;;;5068836;28;20215;-50
2022/12/10 07:32:11;;;;;;;26.40;17.97;;;2.60;99.90;;;;;;5069381;28;20199;-49
2022/12/10 07:34:40;;;;;;;30.57;19.67;;;2.60;99.90;;;;;;5058799;28;20277;-49
2022/12/10 07:37:07;;;;;;;32.20;18.63;;;2.70;99.90;;;;;;5067420;28;20558;-49
2022/12/10 07:39:35;;;;;;;30.47;18.97;;;2.70;99.90;;;;;;5070277;28;20666;-49
2022/12/10 07:42:02;;;;;;;28.70;19.40;;;2.70;99.90;;;;;;5069471;28;20223;-49
2022/12/10 07:44:29;;;;;;;28.10;17.80;;;2.80;99.90;;;;;;5069722;28;20206;-49
2022/12/10 07:46:58;;;;;;;29.73;19.27;;;2.70;99.90;;;;;;5070962;28;20597;-49
2022/12/10 07:49:25;;;;;;;27.50;18.20;;;2.70;99.90;;;;;;5069483;28;20204;-49
2022/12/10 07:51:52;;;;;;;31.67;19.83;;;2.70;99.90;;;;;;5068445;28;20589;-50
2022/12/10 07:54:20;;;;;;;27.20;18.37;;;2.70;99.90;;;;;;5069397;28;20199;-49
2022/12/10 07:56:47;;;;;;;28.83;18.87;;;2.70;99.90;;;;;;5069637;28;20283;-50
2022/12/10 07:59:14;;;;;;;43.03;24.73;;;2.80;99.90;;;;;;5071079;28;20699;-49
2022/12/10 08:01:42;;;;;;;40.60;26.17;;;2.90;99.90;;;;;;5067509;28;20204;-48
2022/12/10 08:04:10;;;;;;;30.20;19.63;;;2.90;99.90;;;;;;5069853;28;20194;-49
2022/12/10 08:06:37;;;;;;;32.63;20.40;;;2.70;99.90;;;;;;5071494;28;20205;-49
2022/12/10 08:09:04;;;;;;;29.80;20.30;;;2.70;99.90;;;;;;5069788;28;20277;-49
2022/12/10 08:11:32;;;;;;;30.30;19.53;;;2.80;99.90;;;;;;5070145;28;20199;-49
2022/12/10 08:13:59;;;;;;;31.43;19.17;;;2.80;99.90;;;;;;5073426;28;20203;-49
2022/12/10 08:16:27;;;;;;;29.60;18.57;;;2.80;99.90;;;;;;5074565;28;20252;-49
2022/12/10 08:18:56;;;;;;;32.47;19.57;;;2.80;99.90;;;;;;5070695;28;20214;-49
2022/12/10 08:21:27;;;;;;;33.13;20.57;;;2.70;99.90;;;;;;5074231;28;20202;-48
2022/12/10 08:23:55;;;;;;;34.13;20.43;;;2.60;99.90;;;;;;5072367;28;20621;-49
2022/12/10 08:26:26;;;;;;;31.73;20.27;;;2.50;99.90;;;;;;5073431;28;20202;-49
2022/12/10 08:28:54;;;;;;;37.43;20.73;;;2.50;99.90;;;;;;5074952;28;20222;-49
2022/12/10 08:31:23;;;;;;;31.77;19.73;;;2.40;99.90;;;;;;5068084;28;20652;-49
2022/12/10 08:33:50;;;;;;;35.03;21.10;;;2.50;99.90;;;;;;5073706;28;20678;-49
2022/12/10 08:36:18;;;;;;;35.93;20.10;;;2.60;99.90;;;;;;5068810;28;20256;-50
2022/12/10 08:38:47;;;;;;;36.07;19.37;;;2.60;99.90;;;;;;5077432;28;20288;-49
2022/12/10 08:41:16;;;;;;;33.73;21.07;;;2.60;99.90;;;;;;5071434;28;20205;-49
2022/12/10 08:43:43;;;;;;;31.97;20.03;;;2.60;99.90;;;;;;5071785;28;20622;-49
2022/12/10 08:46:12;;;;;;;35.87;21.77;;;2.60;99.90;;;;;;5069340;28;20670;-49
2022/12/10 08:48:39;;;;;;;34.53;21.30;;;2.60;99.90;;;;;;5076827;28;20761;-49
2022/12/10 08:51:07;;;;;;;35.73;20.27;;;2.60;99.90;;;;;;5076731;28;20202;-50
2022/12/10 08:53:35;;;;;;;33.80;19.20;;;2.70;99.90;;;;;;5075814;28;20195;-50
2022/12/10 08:56:04;;;;;;;37.20;20.40;;;2.70;99.90;;;;;;5074875;28;20738;-52
2022/12/10 08:58:31;;;;;;;36.20;22.33;;;2.60;99.90;;;;;;5069273;28;20300;-49
2022/12/10 09:00:58;;;;;;;41.03;23.10;;;2.60;99.90;;;;;;5072745;28;20281;-51
2022/12/10 09:03:25;;;;;;;38.13;21.10;;;2.60;99.90;;;;;;5069413;28;20213;-50
2022/12/10 09:05:52;;;;;;;35.43;21.00;;;2.60;99.90;;;;;;5071325;28;20207;-50
2022/12/10 09:08:20;;;;;;;34.13;19.27;;;2.70;99.90;;;;;;5073187;28;20280;-50
2022/12/10 09:10:47;;;;;;;37.13;21.90;;;2.70;99.90;;;;;;5067497;28;20203;-49
2022/12/10 09:13:15;;;;;;;39.33;23.33;;;2.70;99.90;;;;;;5067651;28;20622;-50
2022/12/10 09:15:49;;;;;;;36.57;21.47;;;2.60;99.90;;;;;;5067578;28;20206;-50
2022/12/10 09:18:16;;;;;;;39.20;24.70;;;2.60;99.90;;;;;;5063391;28;20447;-51
2022/12/10 09:20:44;;;;;;;36.57;21.77;;;2.60;99.90;;;;;;5066238;28;20252;-51
2022/12/10 09:23:13;;;;;;;36.03;21.03;;;2.50;99.90;;;;;;5062898;28;20207;-51
2022/12/10 09:25:44;;;;;;;33.50;20.50;;;2.50;99.90;;;;;;5067014;28;20204;-50
2022/12/10 09:28:11;;;;;;;37.70;22.80;;;2.90;99.90;;;;;;5069493;28;20227;-50
2022/12/10 09:30:40;;;;;;;35.30;20.47;;;2.60;99.90;;;;;;5068954;28;20252;-49
2022/12/10 09:33:07;;;;;;;38.03;21.77;;;2.70;99.90;;;;;;5068657;28;20203;-51
2022/12/10 09:35:34;;;;;;;30.23;20.17;;;2.80;99.90;;;;;;5121856;22;20231;-51
2022/12/10 09:38:01;;;;;;;36.57;21.87;;;2.80;99.90;;;;;;5025471;28;20601;-48
2022/12/10 09:40:36;;;;;;;32.00;20.03;;;2.80;99.90;;;;;;5029063;28;20199;-48
2022/12/10 09:43:11;;;;;;;35.47;22.53;;;2.90;99.90;;;;;;5026062;28;20283;-48
2022/12/10 09:45:48;;;;;;;31.47;20.17;;;2.90;99.90;;;;;;5026790;28;20228;-49
2022/12/10 09:48:22;;;;;;;35.03;19.87;;;3.00;99.90;;;;;;5025046;28;20246;-50
2022/12/10 09:50:55;;;;;;;38.03;20.70;;;3.00;99.90;;;;;;5027186;28;20277;-47
2022/12/10 09:53:23;;;;;;;36.03;21.37;;;3.00;99.90;;;;;;5029176;28;20204;-49
2022/12/10 09:55:50;;;;;;;34.47;21.67;;;3.00;99.90;;;;;;5030224;28;20228;-48
2022/12/10 09:58:20;;;;;;;35.67;22.00;;;3.00;99.90;;;;;;5028302;28;20796;-49
2022/12/10 10:00:52;;;;;;;31.93;19.23;;;3.00;99.90;;;;;;5024827;28;20208;-49
2022/12/10 10:03:20;;;;;;;34.03;19.63;;;2.90;99.90;;;;;;5029160;28;20208;-49
2022/12/10 10:05:49;;;;;;;33.53;19.63;;;2.80;99.90;;;;;;5027340;28;20224;-49
2022/12/10 10:08:28;;;;;;;34.77;18.23;;;2.80;99.90;;;;;;5029317;28;20311;-48
2022/12/10 10:10:56;;;;;;;30.70;19.63;;;2.80;99.90;;;;;;5030885;28;20200;-49
2022/12/10 10:13:32;;;;;;;33.33;20.37;;;2.90;99.90;;;;;;5029089;28;20215;-49
2022/12/10 10:16:24;;;;;;;36.20;19.70;;;2.80;99.90;;;;;;5031130;28;20752;-49
2022/12/10 10:18:57;;;;;;;40.80;21.53;;;2.90;99.90;;;;;;5028627;28;20292;-49
2022/12/10 10:21:26;;;;;;;31.83;19.63;;;2.90;99.90;;;;;;5024355;28;20213;-48
2022/12/10 10:23:53;;;;;;;31.70;18.57;;;3.00;99.90;;;;;;5029952;28;20594;-49
2022/12/10 10:26:21;;;;;;;28.87;17.97;;;3.00;99.90;;;;;;5029147;28;20232;-51
2022/12/10 10:28:50;;;;;;;27.13;16.83;;;3.00;99.90;;;;;;5026903;28;20232;-48
2022/12/10 10:31:23;;;;;;;28.87;17.67;;;3.00;99.90;;;;;;5023202;28;20206;-49
2022/12/10 10:33:56;;;;;;;30.53;18.60;;;3.00;99.90;;;;;;5028570;28;20204;-49
2022/12/10 10:36:28;;;;;;;33.03;19.50;;;3.00;99.90;;;;;;5029564;28;20604;-49
2022/12/10 10:38:55;;;;;;;35.63;20.93;;;2.90;99.90;;;;;;5029708;28;20203;-49
2022/12/10 10:41:24;;;;;;;33.90;20.73;;;2.90;99.90;;;;;;5029380;28;20204;-49
2022/12/10 10:44:01;;;;;;;33.60;18.63;;;2.90;99.90;;;;;;5028964;28;20204;-48
2022/12/10 10:46:30;;;;;;;36.80;20.47;;;3.00;99.90;;;;;;5030103;28;20299;-48
2022/12/10 10:49:22;;;;;;;32.70;19.50;;;2.90;99.90;;;;;;5026599;28;20227;-49
2022/12/10 10:51:50;;;;;;;34.57;18.60;;;2.90;99.90;;;;;;5023434;28;20205;-49
2022/12/10 10:54:33;;;;;;;32.13;17.67;;;2.80;99.90;;;;;;5027817;28;20235;-49
2022/12/10 10:57:04;;;;;;;32.27;18.53;;;2.90;99.90;;;;;;5028676;28;20220;-49
2022/12/10 10:59:34;;;;;;;29.93;17.27;;;2.80;99.90;;;;;;5023895;28;20233;-48
2022/12/10 11:02:14;;;;;;;27.83;18.73;;;2.80;99.90;;;;;;5028151;28;20204;-49
2022/12/10 11:04:47;;;;;;;30.63;19.53;;;2.70;99.90;;;;;;5022994;28;20265;-49
2022/12/10 11:07:23;;;;;;;32.47;20.37;;;2.60;99.90;;;;;;5024103;28;20518;-49
2022/12/10 11:09:50;;;;;;;36.63;20.00;;;2.60;99.90;;;;;;5024560;28;20224;-48
2022/12/10 11:12:34;;;;;;;31.70;19.50;;;2.50;99.90;;;;;;5028433;28;20274;-49
2022/12/10 11:15:01;;;;;;;35.10;20.77;;;2.50;99.90;;;;;;5027189;28;20203;-49
2022/12/10 11:17:29;;;;;;;39.47;23.00;;;2.40;99.90;;;;;;5026004;28;20213;-49
2022/12/10 11:20:00;;;;;;;37.07;22.80;;;2.40;99.90;;;;;;5019787;28;20211;-49
2022/12/10 11:22:29;;;;;;;41.13;22.30;;;2.40;99.90;;;;;;5026758;28;20205;-49
2022/12/10 11:24:56;;;;;;;42.77;24.80;;;2.30;99.90;;;;;;5026098;28;20198;-49
2022/12/10 11:27:39;;;;;;;38.83;24.40;;;2.20;99.90;;;;;;5028832;28;20220;-49
2022/12/10 11:30:10;;;;;;;44.70;24.43;;;2.10;99.90;;;;;;5028114;28;20198;-49
2022/12/10 11:33:00;;;;;;;41.97;24.43;;;2.10;99.90;;;;;;5025528;28;20207;-49
2022/12/10 11:35:42;;;;;;;48.03;26.57;;;2.20;99.90;;;;;;5012046;28;20236;-48
2022/12/10 11:38:22;;;;;;;42.67;25.50;;;2.10;99.90;;;;;;5026509;28;20194;-49
2022/12/10 11:40:53;;;;;;;43.50;25.87;;;2.20;99.90;;;;;;5028032;28;20278;-49
2022/12/10 11:43:41;;;;;;;40.80;24.90;;;2.20;99.90;;;;;;5028289;28;20209;-49
2022/12/10 11:46:21;;;;;;;42.00;25.77;;;2.20;99.90;;;;;;5026864;28;20224;-49
2022/12/10 11:49:02;;;;;;;44.63;25.00;;;2.10;99.90;;;;;;5021727;28;20238;-49
2022/12/10 11:51:37;;;;;;;46.20;25.43;;;2.20;99.90;;;;;;5027417;28;20519;-49
2022/12/10 11:54:20;;;;;;;50.63;26.67;;;2.20;99.90;;;;;;5019454;28;20225;-49
2022/12/10 11:56:56;;;;;;;98.17;40.67;;;2.20;99.90;;;;;;5026181;28;20234;-48
2022/12/10 11:59:29;;;;;;;45.93;26.57;;;2.20;99.90;;;;;;5027793;28;20204;-48
2022/12/10 12:02:18;;;;;;;45.23;26.00;;;2.20;99.90;;;;;;5027606;28;20732;-49
2022/12/10 12:05:07;;;;;;;39.67;25.43;;;2.20;99.90;;;;;;5022787;28;20307;-51
2022/12/10 12:07:41;;;;;;;42.93;24.93;;;2.20;99.90;;;;;;5022101;28;20215;-49
2022/12/10 12:10:44;;;;;;;46.40;26.13;;;2.20;99.90;;;;;;5022327;28;20202;-49
2022/12/10 12:13:15;;;;;;;44.67;26.93;;;2.20;99.90;;;;;;5030104;28;20199;-48
2022/12/10 12:15:50;;;;;;;39.90;23.80;;;2.20;99.90;;;;;;5022730;28;20231;-49
2022/12/10 12:18:22;;;;;;;41.43;24.30;;;2.10;99.90;;;;;;5023133;28;20218;-49
2022/12/10 12:20:55;;;;;;;47.50;25.63;;;2.10;99.90;;;;;;5020848;28;20201;-48
2022/12/10 12:23:27;;;;;;;44.10;27.63;;;2.10;99.90;;;;;;5020153;28;20274;-49
2022/12/10 12:25:59;;;;;;;42.07;25.67;;;2.20;99.90;;;;;;5020567;28;20227;-49
2022/12/10 12:28:33;;;;;;;47.10;25.13;;;2.20;99.90;;;;;;5019833;28;20224;-49
2022/12/10 12:31:05;;;;;;;36.13;24.27;;;2.20;99.90;;;;;;5030225;28;20206;-49
2022/12/10 12:33:40;;;;;;;37.63;23.03;;;2.10;99.90;;;;;;5025646;28;20302;-49
2022/12/10 12:36:15;;;;;;;42.20;25.43;;;2.10;99.90;;;;;;5028359;28;20242;-49
2022/12/10 12:38:47;;;;;;;38.50;23.50;;;2.10;99.90;;;;;;5036448;28;20190;-49
2022/12/10 12:41:17;;;;;;;39.00;22.93;;;2.10;99.90;;;;;;5029807;28;20204;-49
2022/12/10 12:43:52;;;;;;;39.97;25.20;;;2.10;99.90;;;;;;5024551;28;20249;-49
2022/12/10 12:46:28;;;;;;;36.40;23.47;;;2.10;99.90;;;;;;5024596;28;20314;-48
2022/12/10 12:49:00;;;;;;;41.10;24.03;;;2.00;99.90;;;;;;5028346;28;20267;-49
2022/12/10 12:51:33;;;;;;;37.80;23.07;;;2.10;99.90;;;;;;5029792;28;20257;-49
2022/12/10 12:54:00;;;;;;;39.93;23.80;;;2.10;99.90;;;;;;5030139;28;20246;-49
2022/12/10 12:56:43;;;;;;;34.70;21.40;;;2.10;99.90;;;;;;5029960;28;20622;-49
2022/12/10 12:59:19;;;;;;;38.00;22.27;;;2.10;99.90;;;;;;5025800;28;20584;-49